Patriot, Indiana
Current Conditions -  °F | °C
As of 2:52 PM on Friday 31 Oct 2014 (Local Time) from KCVG Reporting Station
Light Rain Light Rain  
Wind Chill: 32°   Ceiling: 1400
Heat Index: 41°   Visibility: 5mi
Dew Point: 38°   Wind: 21mph
Humidity: 89%   Direction: 330°NNW
Pressure: 29.92"   Gusts: 24mph
Location:  38.84°N, 84.83°W
Report Text: KCVG 311852Z 33018G21KT 5SM -RA BR BKN014 OVC024 05/03 A2992 RMK AO2 PK WND 33027/1817 SLP134 P0003 T00500033
Loading
Personal Weather Stations






























Interactive Weather Map New forecast layout! Learn more

10-Day Weather Forecast

Advertisements
Track Severe Weather on mobile